Hatfield, Minnesota
Current Conditions -  °F | °C
As of 3:34 AM on Saturday 20 Dec 2014 (Local Time) from KPQN Reporting Station
Haze Haze  
Wind Chill: 25°   Ceiling: 500
Heat Index: 30°   Visibility: 4mi
Dew Point: 28°   Wind: 5mph
Humidity: 93%   Direction: 200°SSW
Pressure: 30.03"   Gusts: NA
Location:  44.066°N, 96.3302°W
Report Text: KPQN 200934Z AUTO 20004KT 4SM BR OVC005 M01/M02 A3003 RMK AO2
Loading
Personal Weather Stations






























Interactive Weather Map New forecast layout! Learn more

10-Day Weather Forecast

Advertisements
Track Severe Weather on mobile